sensor_id;sensor_type;location;lat;lon;timestamp;P1;P2;P0
66149;PMS5003;52952;50.904;20.648;2024-02-26T00:10:02;60;47;30
66149;PMS5003;52952;50.904;20.648;2024-02-26T00:20:13;60;47;30
66149;PMS5003;52952;50.904;20.648;2024-02-26T00:30:12;60;47;30
66149;PMS5003;52952;50.904;20.648;2024-02-26T00:40:09;29;26;17
66149;PMS5003;52952;50.904;20.648;2024-02-26T00:50:07;29;26;17
66149;PMS5003;52952;50.904;20.648;2024-02-26T01:00:15;29;26;17
66149;PMS5003;52952;50.904;20.648;2024-02-26T01:10:01;23;21;12
66149;PMS5003;52952;50.904;20.648;2024-02-26T01:20:12;23;21;12
66149;PMS5003;52952;50.904;20.648;2024-02-26T01:30:11;23;21;12
66149;PMS5003;52952;50.904;20.648;2024-02-26T01:40:10;24;24;16
66149;PMS5003;52952;50.904;20.648;2024-02-26T01:50:02;24;24;16
66149;PMS5003;52952;50.904;20.648;2024-02-26T02:00:02;24;24;16
66149;PMS5003;52952;50.904;20.648;2024-02-26T02:10:12;31;28;16
66149;PMS5003;52952;50.904;20.648;2024-02-26T02:20:17;31;28;16
66149;PMS5003;52952;50.904;20.648;2024-02-26T02:30:12;31;28;16
66149;PMS5003;52952;50.904;20.648;2024-02-26T02:40:02;31;30;20
66149;PMS5003;52952;50.904;20.648;2024-02-26T02:50:10;31;30;20
66149;PMS5003;52952;50.904;20.648;2024-02-26T03:00:02;31;30;20
66149;PMS5003;52952;50.904;20.648;2024-02-26T03:10:06;39;33;20
66149;PMS5003;52952;50.904;20.648;2024-02-26T03:20:12;39;33;20
66149;PMS5003;52952;50.904;20.648;2024-02-26T03:30:12;39;33;20
66149;PMS5003;52952;50.904;20.648;2024-02-26T03:40:08;30;29;20
66149;PMS5003;52952;50.904;20.648;2024-02-26T03:50:12;30;29;20
66149;PMS5003;52952;50.904;20.648;2024-02-26T04:00:12;30;29;20
66149;PMS5003;52952;50.904;20.648;2024-02-26T04:10:12;30;28;17
66149;PMS5003;52952;50.904;20.648;2024-02-26T04:20:04;30;28;17
66149;PMS5003;52952;50.904;20.648;2024-02-26T04:30:11;30;28;17
66149;PMS5003;52952;50.904;20.648;2024-02-26T04:40:03;28;28;18
66149;PMS5003;52952;50.904;20.648;2024-02-26T04:50:05;28;28;18
66149;PMS5003;52952;50.904;20.648;2024-02-26T05:00:02;28;28;18
66149;PMS5003;52952;50.904;20.648;2024-02-26T05:10:04;32;29;19
66149;PMS5003;52952;50.904;20.648;2024-02-26T05:20:15;32;29;19
66149;PMS5003;52952;50.904;20.648;2024-02-26T05:30:15;32;29;19
66149;PMS5003;52952;50.904;20.648;2024-02-26T05:40:02;47;38;23
66149;PMS5003;52952;50.904;20.648;2024-02-26T05:50:13;47;38;23
66149;PMS5003;52952;50.904;20.648;2024-02-26T06:00:13;47;38;23
66149;PMS5003;52952;50.904;20.648;2024-02-26T06:10:02;40;35;20
66149;PMS5003;52952;50.904;20.648;2024-02-26T06:20:15;40;35;20
66149;PMS5003;52952;50.904;20.648;2024-02-26T06:30:09;40;35;20
66149;PMS5003;52952;50.904;20.648;2024-02-26T06:40:07;38;31;19
66149;PMS5003;52952;50.904;20.648;2024-02-26T06:50:02;38;31;19
66149;PMS5003;52952;50.904;20.648;2024-02-26T07:00:02;38;31;19
66149;PMS5003;52952;50.904;20.648;2024-02-26T07:10:14;33;31;19
66149;PMS5003;52952;50.904;20.648;2024-02-26T07:20:14;33;31;19
66149;PMS5003;52952;50.904;20.648;2024-02-26T07:30:14;33;31;19
66149;PMS5003;52952;50.904;20.648;2024-02-26T07:40:06;35;33;19
66149;PMS5003;52952;50.904;20.648;2024-02-26T07:50:08;35;33;19
66149;PMS5003;52952;50.904;20.648;2024-02-26T08:00:17;35;33;19
66149;PMS5003;52952;50.904;20.648;2024-02-26T08:10:06;17;17;11
66149;PMS5003;52952;50.904;20.648;2024-02-26T08:20:11;17;17;11
66149;PMS5003;52952;50.904;20.648;2024-02-26T08:30:10;17;17;11
66149;PMS5003;52952;50.904;20.648;2024-02-26T08:40:11;15;15;10
66149;PMS5003;52952;50.904;20.648;2024-02-26T08:50:10;15;15;10
66149;PMS5003;52952;50.904;20.648;2024-02-26T09:00:09;15;15;10
66149;PMS5003;52952;50.904;20.648;2024-02-26T09:10:13;9;9;7
66149;PMS5003;52952;50.904;20.648;2024-02-26T09:20:13;9;9;7
66149;PMS5003;52952;50.904;20.648;2024-02-26T09:30:14;9;9;7
66149;PMS5003;52952;50.904;20.648;2024-02-26T09:40:03;9;8;6
66149;PMS5003;52952;50.904;20.648;2024-02-26T09:50:12;9;8;6
66149;PMS5003;52952;50.904;20.648;2024-02-26T10:00:24;9;8;6
66149;PMS5003;52952;50.904;20.648;2024-02-26T10:10:08;11;11;8
66149;PMS5003;52952;50.904;20.648;2024-02-26T10:20:15;11;11;8
66149;PMS5003;52952;50.904;20.648;2024-02-26T10:30:21;11;11;8
66149;PMS5003;52952;50.904;20.648;2024-02-26T10:40:12;12;10;8
66149;PMS5003;52952;50.904;20.648;2024-02-26T10:50:05;12;10;8
66149;PMS5003;52952;50.904;20.648;2024-02-26T11:00:20;12;10;8
66149;PMS5003;52952;50.904;20.648;2024-02-26T11:10:12;17;17;11
66149;PMS5003;52952;50.904;20.648;2024-02-26T11:20:06;17;17;11
66149;PMS5003;52952;50.904;20.648;2024-02-26T11:40:13;12;12;9
66149;PMS5003;52952;50.904;20.648;2024-02-26T11:50:58;12;12;9
66149;PMS5003;52952;50.904;20.648;2024-02-26T12:00:17;12;12;9
66149;PMS5003;52952;50.904;20.648;2024-02-26T12:10:44;17;14;9
66149;PMS5003;52952;50.904;20.648;2024-02-26T12:20:14;17;14;9
66149;PMS5003;52952;50.904;20.648;2024-02-26T12:30:13;17;14;9
66149;PMS5003;52952;50.904;20.648;2024-02-26T12:40:05;22;21;13
66149;PMS5003;52952;50.904;20.648;2024-02-26T12:50:10;22;21;13
66149;PMS5003;52952;50.904;20.648;2024-02-26T13:00:16;22;21;13
66149;PMS5003;52952;50.904;20.648;2024-02-26T13:10:12;22;21;15
66149;PMS5003;52952;50.904;20.648;2024-02-26T13:20:24;22;21;15
66149;PMS5003;52952;50.904;20.648;2024-02-26T13:30:11;22;21;15
66149;PMS5003;52952;50.904;20.648;2024-02-26T13:40:17;27;26;17
66149;PMS5003;52952;50.904;20.648;2024-02-26T13:50:13;27;26;17
66149;PMS5003;52952;50.904;20.648;2024-02-26T14:00:10;27;26;17
66149;PMS5003;52952;50.904;20.648;2024-02-26T14:10:12;25;25;17
66149;PMS5003;52952;50.904;20.648;2024-02-26T14:20:14;25;25;17
66149;PMS5003;52952;50.904;20.648;2024-02-26T14:30:27;25;25;17
66149;PMS5003;52952;50.904;20.648;2024-02-26T14:40:09;34;30;19
66149;PMS5003;52952;50.904;20.648;2024-02-26T14:50:11;34;30;19
66149;PMS5003;52952;50.904;20.648;2024-02-26T15:00:12;34;30;19
66149;PMS5003;52952;50.904;20.648;2024-02-26T15:10:05;34;32;22
66149;PMS5003;52952;50.904;20.648;2024-02-26T15:20:12;34;32;22
66149;PMS5003;52952;50.904;20.648;2024-02-26T15:30:12;34;32;22
66149;PMS5003;52952;50.904;20.648;2024-02-26T15:40:04;37;33;22
66149;PMS5003;52952;50.904;20.648;2024-02-26T15:50:08;37;33;22
66149;PMS5003;52952;50.904;20.648;2024-02-26T16:00:27;37;33;22
66149;PMS5003;52952;50.904;20.648;2024-02-26T16:10:15;41;36;22
66149;PMS5003;52952;50.904;20.648;2024-02-26T16:20:09;41;36;22
66149;PMS5003;52952;50.904;20.648;2024-02-26T16:30:06;41;36;22
66149;PMS5003;52952;50.904;20.648;2024-02-26T16:40:03;44;38;25
66149;PMS5003;52952;50.904;20.648;2024-02-26T16:50:11;44;38;25
66149;PMS5003;52952;50.904;20.648;2024-02-26T17:00:22;44;38;25
66149;PMS5003;52952;50.904;20.648;2024-02-26T17:20:12;50;41;27
66149;PMS5003;52952;50.904;20.648;2024-02-26T17:30:02;50;41;27
66149;PMS5003;52952;50.904;20.648;2024-02-26T17:50:10;52;41;26
66149;PMS5003;52952;50.904;20.648;2024-02-26T18:00:12;52;41;26
66149;PMS5003;52952;50.904;20.648;2024-02-26T18:20:13;48;41;26
66149;PMS5003;52952;50.904;20.648;2024-02-26T18:30:11;48;41;26
66149;PMS5003;52952;50.904;20.648;2024-02-26T18:50:14;45;38;24
66149;PMS5003;52952;50.904;20.648;2024-02-26T19:00:17;45;38;24
66149;PMS5003;52952;50.904;20.648;2024-02-26T19:20:16;45;37;24
66149;PMS5003;52952;50.904;20.648;2024-02-26T19:30:07;45;37;24
66149;PMS5003;52952;50.904;20.648;2024-02-26T19:40:18;45;37;24
66149;PMS5003;52952;50.904;20.648;2024-02-26T19:50:02;36;32;21
66149;PMS5003;52952;50.904;20.648;2024-02-26T20:00:16;36;32;21
66149;PMS5003;52952;50.904;20.648;2024-02-26T20:10:03;36;32;21
66149;PMS5003;52952;50.904;20.648;2024-02-26T20:20:12;38;33;22
66149;PMS5003;52952;50.904;20.648;2024-02-26T20:30:17;38;33;22
66149;PMS5003;52952;50.904;20.648;2024-02-26T20:40:01;38;33;22
66149;PMS5003;52952;50.904;20.648;2024-02-26T20:50:10;38;32;20
66149;PMS5003;52952;50.904;20.648;2024-02-26T21:00:18;38;32;20
66149;PMS5003;52952;50.904;20.648;2024-02-26T21:10:07;38;32;20
66149;PMS5003;52952;50.904;20.648;2024-02-26T21:20:23;35;33;22
66149;PMS5003;52952;50.904;20.648;2024-02-26T21:40:02;35;33;22
66149;PMS5003;52952;50.904;20.648;2024-02-26T21:50:03;44;36;23
66149;PMS5003;52952;50.904;20.648;2024-02-26T22:00:13;44;36;23
66149;PMS5003;52952;50.904;20.648;2024-02-26T22:10:09;44;36;23
66149;PMS5003;52952;50.904;20.648;2024-02-26T22:20:16;45;37;22
66149;PMS5003;52952;50.904;20.648;2024-02-26T22:30:09;45;37;22
66149;PMS5003;52952;50.904;20.648;2024-02-26T22:40:02;45;37;22
66149;PMS5003;52952;50.904;20.648;2024-02-26T22:50:08;40;34;23
66149;PMS5003;52952;50.904;20.648;2024-02-26T23:00:11;40;34;23
66149;PMS5003;52952;50.904;20.648;2024-02-26T23:10:04;45;36;24
66149;PMS5003;52952;50.904;20.648;2024-02-26T23:20:17;45;36;24
66149;PMS5003;52952;50.904;20.648;2024-02-26T23:30:14;45;36;24
66149;PMS5003;52952;50.904;20.648;2024-02-26T23:40:08;44;37;21
66149;PMS5003;52952;50.904;20.648;2024-02-26T23:50:08;44;37;21
